Time;durP1;ratioP1;P1;durP2;ratioP2;P2;SDS_P1;SDS_P2;PMS_P1;PMS_P2;Temp;Humidity;BMP_temperature;BMP_pressure;BME280_temperature;BME280_humidity;BME280_pressure;Samples;Min_cycle;Max_cycle;Signal;HPM_P1;HPM_P2
2021/01/03 05:00:23;;;;;;;42.28;16.98;;;2.50;99.90;;;;;;6065857;22;89102;31
2021/01/03 05:03:25;;;;;;;42.75;18.25;;;2.50;99.90;;;;;;4882841;28;88895;-85
2021/01/03 05:05:52;;;;;;;44.33;15.55;;;2.50;99.90;;;;;;4835809;29;89107;-85
2021/01/03 05:08:41;;;;;;;44.65;16.98;;;2.50;99.90;;;;;;4882645;28;86957;-84
2021/01/03 05:11:14;;;;;;;41.78;19.00;;;2.60;99.90;;;;;;4883180;28;87172;-84
2021/01/03 05:13:43;;;;;;;36.72;15.93;;;2.60;99.90;;;;;;4894747;28;86891;-84
2021/01/03 05:16:11;;;;;;;45.40;18.15;;;2.60;99.90;;;;;;4898094;28;87663;-85
2021/01/03 05:18:37;;;;;;;44.63;18.33;;;2.70;99.90;;;;;;4887628;28;87305;-86
2021/01/03 05:21:09;;;;;;;47.13;18.38;;;2.60;99.90;;;;;;4889228;28;86124;-85
2021/01/03 05:23:55;;;;;;;42.85;18.42;;;2.60;99.90;;;;;;4896294;28;87160;-85
2021/01/03 05:26:35;;;;;;;40.00;17.05;;;2.70;99.90;;;;;;4897752;28;87209;-86
2021/01/03 05:29:03;;;;;;;43.30;16.88;;;2.70;99.90;;;;;;4895249;28;88119;-85
2021/01/03 05:31:30;;;;;;;43.60;17.77;;;2.60;99.90;;;;;;4893702;28;86447;-84
2021/01/03 05:34:00;;;;;;;44.85;18.30;;;2.70;99.90;;;;;;4894175;28;87387;-86
2021/01/03 05:36:34;;;;;;;43.10;18.48;;;2.60;99.90;;;;;;4887929;28;87300;-85
2021/01/03 05:39:03;;;;;;;42.83;16.75;;;2.60;99.90;;;;;;4889689;28;86967;-85
2021/01/03 05:41:44;;;;;;;44.45;18.30;;;2.60;99.90;;;;;;4892292;28;86776;-86
2021/01/03 05:44:14;;;;;;;44.60;20.05;;;2.10;99.90;;;;;;4878976;28;87443;-85
2021/01/03 05:46:46;;;;;;;44.33;17.50;;;2.60;99.90;;;;;;4891651;28;88312;-86
2021/01/03 05:49:30;;;;;;;44.35;18.30;;;2.60;99.90;;;;;;4882966;28;86963;-84
2021/01/03 05:52:29;;;;;;;42.88;16.80;;;2.60;99.90;;;;;;4890789;28;86826;-86
2021/01/03 05:55:01;;;;;;;43.13;16.65;;;2.60;99.90;;;;;;4892360;28;88703;-85
2021/01/03 05:57:35;;;;;;;40.58;16.25;;;2.70;99.90;;;;;;4889531;28;88916;-85
2021/01/03 06:00:16;;;;;;;43.63;16.52;;;2.60;99.90;;;;;;4892281;28;86915;-86
2021/01/03 06:02:41;;;;;;;35.97;15.30;;;2.60;99.90;;;;;;4892584;28;87165;-84
2021/01/03 06:05:09;;;;;;;44.05;17.95;;;2.90;99.90;;;;;;4893492;28;86908;-85
2021/01/03 06:07:36;;;;;;;43.22;18.17;;;2.60;99.90;;;;;;4892064;28;87660;-86
2021/01/03 06:10:23;;;;;;;37.45;16.35;;;2.50;99.90;;;;;;4893672;28;86979;-86
2021/01/03 06:12:57;;;;;;;40.25;16.75;;;2.60;99.90;;;;;;4885214;28;86029;-84
2021/01/03 06:15:23;;;;;;;38.45;15.85;;;2.60;99.90;;;;;;4889089;28;87205;-84
2021/01/03 06:17:53;;;;;;;41.00;16.70;;;2.60;99.90;;;;;;4890770;28;86976;-84
2021/01/03 06:20:23;;;;;;;45.17;17.38;;;2.90;99.90;;;;;;4890738;28;87758;-82
2021/01/03 06:22:58;;;;;;;40.80;18.25;;;2.40;99.90;;;;;;4889822;28;86467;-84
2021/01/03 06:25:45;;;;;;;41.45;17.45;;;2.70;99.90;;;;;;4889756;28;87504;-83
2021/01/03 06:28:23;;;;;;;39.88;15.65;;;2.70;99.90;;;;;;4890171;28;87067;-82
2021/01/03 06:31:13;;;;;;;39.88;17.02;;;2.70;99.90;;;;;;4891476;28;86652;-83
2021/01/03 06:34:01;;;;;;;42.90;16.58;;;3.00;99.90;;;;;;4879373;28;87070;-82
2021/01/03 06:36:32;;;;;;;37.33;15.68;;;2.80;99.90;;;;;;4891291;28;88713;-84
2021/01/03 06:39:20;;;;;;;;;;;2.80;99.90;;;;;;4892304;28;87502;-83
2021/01/03 06:41:50;;;;;;;39.15;16.77;;;2.90;99.90;;;;;;4892169;28;86907;-83
2021/01/03 06:44:28;;;;;;;32.30;14.75;;;2.90;99.90;;;;;;4887152;28;87935;-84
2021/01/03 06:47:14;;;;;;;38.28;17.58;;;3.10;99.90;;;;;;4881231;28;87508;-85
2021/01/03 06:49:48;;;;;;;39.08;16.00;;;2.90;99.90;;;;;;4890251;28;88820;-83
2021/01/03 06:52:42;;;;;;;35.88;15.38;;;2.90;99.90;;;;;;4890628;28;86644;-83
2021/01/03 06:55:56;;;;;;;39.67;16.15;;;3.30;99.90;;;;;;4892306;28;86248;-87
2021/01/03 06:58:31;;;;;;;36.38;15.68;;;3.00;99.90;;;;;;4875050;28;87836;-87
2021/01/03 07:01:10;;;;;;;40.80;17.35;;;3.00;99.90;;;;;;4888842;28;86558;-84
2021/01/03 07:03:38;;;;;;;36.90;15.68;;;3.00;99.90;;;;;;4892307;28;87117;-85
2021/01/03 07:06:07;;;;;;;40.25;16.70;;;2.90;99.90;;;;;;4901543;28;85547;-85
2021/01/03 07:08:40;;;;;;;42.03;17.05;;;2.90;99.90;;;;;;4881913;28;88720;-85
2021/01/03 07:11:37;;;;;;;48.78;22.60;;;2.90;99.90;;;;;;4890773;28;87808;-83
2021/01/03 07:14:08;;;;;;;45.85;18.92;;;2.90;99.90;;;;;;4889489;28;87737;-85
2021/01/03 07:16:46;;;;;;;36.35;17.35;;;2.90;99.90;;;;;;4892266;28;86503;-85
2021/01/03 07:19:24;;;;;;;43.50;17.27;;;2.90;99.90;;;;;;4891911;28;86907;-85
2021/01/03 07:21:50;;;;;;;44.30;17.92;;;3.00;99.90;;;;;;4874835;28;88550;-84
2021/01/03 07:24:37;;;;;;;40.35;16.90;;;2.90;99.90;;;;;;4892306;28;86852;-84
2021/01/03 07:27:20;;;;;;;40.22;16.42;;;2.90;99.90;;;;;;4892699;28;86861;-85
2021/01/03 07:29:54;;;;;;;44.83;17.27;;;2.90;99.90;;;;;;4877673;28;89854;-85
2021/01/03 07:32:22;;;;;;;37.95;17.30;;;2.90;99.90;;;;;;4894938;28;88462;-85
2021/01/03 07:34:51;;;;;;;38.65;17.52;;;2.80;99.90;;;;;;4888377;28;87026;-85
2021/01/03 07:37:21;;;;;;;43.35;18.95;;;2.80;99.90;;;;;;4889044;28;87000;-85
2021/01/03 07:40:08;;;;;;;45.70;19.40;;;3.10;99.90;;;;;;4893014;28;88119;-85
2021/01/03 07:42:56;;;;;;;37.33;16.85;;;2.90;99.90;;;;;;4892653;28;87174;-84
2021/01/03 07:45:34;;;;;;;40.88;17.63;;;2.90;99.90;;;;;;4890071;28;87099;-86
2021/01/03 07:48:01;;;;;;;45.80;18.10;;;3.00;99.90;;;;;;4893789;28;87268;-84
2021/01/03 07:50:30;;;;;;;42.88;18.02;;;2.90;99.90;;;;;;4892072;28;86899;-86
2021/01/03 07:53:03;;;;;;;43.22;17.35;;;2.90;99.90;;;;;;4892829;28;87014;-85
2021/01/03 07:55:32;;;;;;;35.78;16.25;;;3.10;99.90;;;;;;4897448;28;86910;-83
2021/01/03 07:58:10;;;;;;;39.67;16.70;;;3.20;99.90;;;;;;4891442;28;86207;-85
2021/01/03 08:00:38;;;;;;;44.28;18.98;;;3.10;99.90;;;;;;4891054;28;88732;-85
2021/01/03 08:03:16;;;;;;;44.85;18.38;;;3.10;99.90;;;;;;4877642;28;87721;-85
2021/01/03 08:05:44;;;;;;;41.58;19.60;;;3.20;99.90;;;;;;4877572;28;87930;-82
2021/01/03 08:08:12;;;;;;;44.60;19.48;;;3.00;99.90;;;;;;4874035;28;86567;-83
2021/01/03 08:10:39;;;;;;;38.60;17.48;;;3.10;99.90;;;;;;4887510;28;87859;-84
2021/01/03 08:13:13;;;;;;;41.13;17.75;;;3.20;99.90;;;;;;4882995;28;89361;-89
2021/01/03 08:15:39;;;;;;;39.53;18.05;;;;;;;;;;4871151;28;86305;-87
2021/01/03 08:18:19;;;;;;;38.25;18.27;;;3.30;99.90;;;;;;4875697;28;86895;-87
2021/01/03 08:20:49;;;;;;;41.13;18.48;;;3.50;99.90;;;;;;4878124;28;86939;-87
2021/01/03 08:23:26;;;;;;;38.90;17.48;;;3.20;99.80;;;;;;4873039;28;86951;-87
2021/01/03 08:26:17;;;;;;;40.10;16.10;;;3.40;99.90;;;;;;4877915;28;86273;-85
2021/01/03 08:29:02;;;;;;;40.53;18.35;;;3.40;99.20;;;;;;4866436;28;86796;-88
2021/01/03 08:31:29;;;;;;;46.38;19.05;;;3.70;99.40;;;;;;4870209;28;88604;-84
2021/01/03 08:33:58;;;;;;;34.85;16.42;;;3.50;99.00;;;;;;4867819;28;87632;-85
2021/01/03 08:36:36;;;;;;;43.28;17.60;;;3.80;98.90;;;;;;4872220;28;86652;-86
2021/01/03 08:39:08;;;;;;;38.15;16.00;;;3.60;98.20;;;;;;4863969;28;87043;-86
2021/01/03 08:41:50;;;;;;;43.58;17.85;;;3.60;97.70;;;;;;4869794;29;87270;-86
2021/01/03 08:44:21;;;;;;;38.80;16.75;;;3.50;97.30;;;;;;4853509;29;87755;-86
2021/01/03 08:46:48;;;;;;;43.20;18.13;;;;;;;;;;4878693;28;86610;-86
2021/01/03 08:49:14;;;;;;;42.22;18.55;;;;;;;;;;4869270;28;86456;-86
2021/01/03 08:51:40;;;;;;;37.42;16.80;;;3.40;97.60;;;;;;4868526;29;88987;-87
2021/01/03 08:54:09;;;;;;;43.22;19.13;;;3.50;97.70;;;;;;4879686;28;88034;-87
2021/01/03 08:56:43;;;;;;;42.03;17.85;;;3.50;97.50;;;;;;4882434;28;87836;-88
2021/01/03 08:59:13;;;;;;;36.38;17.90;;;3.50;97.70;;;;;;4872089;28;86704;-88
2021/01/03 09:01:39;;;;;;;44.03;20.27;;;;;;;;;;4867623;28;87470;-88
2021/01/03 09:04:08;;;;;;;44.40;19.38;;;3.50;97.00;;;;;;4868918;28;87694;-88
2021/01/03 09:06:35;;;;;;;38.10;18.60;;;3.60;97.00;;;;;;4860140;28;86974;-88
2021/01/03 09:09:10;;;;;;;50.13;25.30;;;3.80;97.10;;;;;;4868648;29;88092;-89
2021/01/03 09:11:38;;;;;;;40.70;19.25;;;3.60;97.10;;;;;;4853668;29;89035;-88
2021/01/03 09:14:29;;;;;;;40.80;18.77;;;3.60;97.10;;;;;;4874904;28;88019;-86
2021/01/03 09:17:05;;;;;;;45.45;19.27;;;3.70;96.80;;;;;;4862550;28;87032;-87
2021/01/03 09:19:58;;;;;;;43.88;19.45;;;3.80;96.90;;;;;;4865706;28;87643;-86
2021/01/03 09:22:31;;;;;;;40.38;17.42;;;3.60;96.90;;;;;;4873990;28;87704;-86
2021/01/03 09:25:14;;;;;;;36.92;16.90;;;3.60;96.80;;;;;;4868753;28;87822;-88
2021/01/03 09:27:41;;;;;;;39.78;16.65;;;3.70;97.00;;;;;;4863290;28;86995;-87
2021/01/03 09:30:19;;;;;;;41.42;18.42;;;3.70;96.80;;;;;;4860084;28;87001;-89
2021/01/03 09:32:47;;;;;;;40.45;17.70;;;3.70;96.90;;;;;;4868805;28;86836;-86
2021/01/03 09:35:46;;;;;;;40.10;17.40;;;3.90;96.90;;;;;;4856973;29;87852;-88
2021/01/03 09:38:34;;;;;;;39.60;18.20;;;3.70;96.90;;;;;;4861637;28;86920;-90
2021/01/03 09:41:09;;;;;;;39.30;17.95;;;3.70;96.90;;;;;;4869374;29;85934;-88
2021/01/03 09:44:09;;;;;;;38.47;16.98;;;3.70;97.20;;;;;;4874192;28;88070;-89
2021/01/03 09:46:49;;;;;;;39.55;17.10;;;3.60;96.70;;;;;;4862468;28;87839;-89
2021/01/03 09:49:35;;;;;;;37.00;18.23;;;3.70;96.70;;;;;;4872146;28;88362;-89
2021/01/03 09:52:27;;;;;;;38.60;16.83;;;3.70;97.20;;;;;;4870921;28;86659;-87
2021/01/03 09:55:04;;;;;;;40.20;16.52;;;3.80;97.40;;;;;;4870585;29;89298;-90
2021/01/03 09:57:42;;;;;;;36.42;18.55;;;3.80;95.90;;;;;;4868263;28;90156;-89
2021/01/03 10:00:15;;;;;;;43.03;17.42;;;3.80;96.10;;;;;;4871725;28;88074;-91
2021/01/03 10:02:44;;;;;;;38.30;17.85;;;;;;;;;;4850886;29;86720;-91
2021/01/03 10:05:31;;;;;;;38.30;18.02;;;3.90;96.10;;;;;;4868366;29;87828;-88
2021/01/03 10:08:06;;;;;;;41.42;18.67;;;4.00;96.30;;;;;;4872778;28;87048;-89
2021/01/03 10:10:53;;;;;;;42.83;19.30;;;3.90;95.60;;;;;;4871347;29;86852;-89
2021/01/03 10:13:21;;;;;;;37.10;17.08;;;4.10;95.70;;;;;;4853897;28;86941;-87
2021/01/03 10:15:49;;;;;;;41.33;17.50;;;;;;;;;;4869560;28;89079;-88
2021/01/03 10:18:35;;;;;;;38.35;17.77;;;4.10;94.40;;;;;;4868849;29;87611;-87
2021/01/03 10:21:19;;;;;;;38.85;16.20;;;4.10;94.40;;;;;;4872129;28;87384;-87
2021/01/03 10:23:45;;;;;;;37.70;17.65;;;;;;;;;;4876519;28;87029;-87
2021/01/03 10:26:33;;;;;;;38.17;17.20;;;4.30;94.00;;;;;;4872359;28;87255;-85
2021/01/03 10:28:59;;;;;;;36.00;16.67;;;4.20;94.00;;;;;;4871733;29;87121;-84
2021/01/03 10:31:36;;;;;;;34.70;16.42;;;4.30;93.10;;;;;;4869903;28;86828;-86
2021/01/03 10:34:01;;;;;;;39.35;16.95;;;4.20;93.00;;;;;;4872257;28;86323;-84
2021/01/03 10:36:27;;;;;;;38.33;16.85;;;4.20;92.80;;;;;;4874445;28;87414;-86
2021/01/03 10:38:53;;;;;;;37.85;15.95;;;4.30;92.90;;;;;;4869927;28;87513;-86
2021/01/03 10:41:18;;;;;;;42.88;17.98;;;4.20;93.20;;;;;;4876147;28;88088;-85
2021/01/03 10:43:47;;;;;;;38.22;17.52;;;4.40;92.50;;;;;;4873847;28;87168;-86
2021/01/03 10:46:16;;;;;;;35.22;16.40;;;4.30;92.50;;;;;;4871534;28;87746;-86
2021/01/03 10:48:44;;;;;;;35.03;16.60;;;;;;;;;;4872733;28;87977;-86
2021/01/03 10:51:10;;;;;;;35.65;16.15;;;4.30;92.40;;;;;;4874846;28;86935;-85
2021/01/03 10:53:37;;;;;;;37.97;18.10;;;4.40;92.60;;;;;;4872171;29;87582;-86
2021/01/03 10:56:03;;;;;;;30.50;14.98;;;4.50;92.40;;;;;;4878926;29;86791;-82
2021/01/03 10:58:29;;;;;;;34.78;15.93;;;4.60;91.90;;;;;;4891980;28;86839;-83
2021/01/03 11:00:55;;;;;;;35.33;16.48;;;;;;;;;;4890582;28;86279;-82
2021/01/03 11:03:21;;;;;;;34.50;16.33;;;;;;;;;;4895581;28;86298;-84
2021/01/03 11:05:47;;;;;;;37.80;17.00;;;;;;;;;;4883866;28;88295;-85
2021/01/03 11:08:13;;;;;;;35.65;17.38;;;;;;;;;;4875685;28;88310;-82
2021/01/03 11:10:39;;;;;;;32.55;15.02;;;;;;;;;;4880785;28;86911;-78
2021/01/03 11:13:04;;;;;;;30.80;15.60;;;4.80;91.40;;;;;;4890145;29;86234;-84
2021/01/03 11:15:33;;;;;;;30.05;15.43;;;4.80;90.20;;;;;;4888664;28;86426;-84
2021/01/03 11:17:58;;;;;;;30.38;15.48;;;4.80;89.90;;;;;;4887588;28;87012;-86
2021/01/03 11:20:24;;;;;;;34.78;16.05;;;4.80;90.20;;;;;;4877832;28;86910;-87
2021/01/03 11:22:50;;;;;;;34.65;16.55;;;4.80;88.90;;;;;;4874670;28;86800;-86
2021/01/03 11:25:16;;;;;;;35.22;17.05;;;4.70;88.30;;;;;;4874026;28;86890;-86
2021/01/03 11:27:41;;;;;;;32.08;15.68;;;4.70;89.90;;;;;;4873794;28;86996;-85
2021/01/03 11:30:10;;;;;;;37.55;16.67;;;4.60;90.30;;;;;;4872994;28;87708;-85
2021/01/03 11:32:36;;;;;;;39.10;17.48;;;4.60;89.90;;;;;;4872155;29;86333;-86
2021/01/03 11:35:02;;;;;;;32.90;16.52;;;4.60;88.80;;;;;;4872358;28;86986;-83
2021/01/03 11:37:29;;;;;;;33.38;17.75;;;4.50;89.00;;;;;;4858964;29;90310;-83
2021/01/03 11:39:56;;;;;;;31.23;15.52;;;4.60;89.80;;;;;;4874264;28;86878;-85
2021/01/03 11:42:31;;;;;;;32.35;16.00;;;4.60;90.10;;;;;;4870597;28;86613;-86
2021/01/03 11:44:57;;;;;;;31.98;15.63;;;4.60;88.60;;;;;;4869095;28;86684;-85
2021/01/03 11:47:23;;;;;;;35.50;14.75;;;;;;;;;;4885231;28;88112;-85
2021/01/03 11:50:02;;;;;;;32.53;15.82;;;4.40;89.00;;;;;;4871894;29;87806;-85
2021/01/03 11:52:31;;;;;;;30.17;15.05;;;4.50;88.40;;;;;;4877213;28;87046;-81
2021/01/03 11:54:57;;;;;;;29.70;14.20;;;4.60;87.40;;;;;;4890537;28;88486;-81
2021/01/03 11:57:23;;;;;;;31.08;15.65;;;4.60;88.60;;;;;;4896169;28;90103;-83
2021/01/03 12:00:10;;;;;;;30.60;15.80;;;4.50;89.10;;;;;;4885918;28;86336;-82
2021/01/03 12:02:36;;;;;;;30.92;15.18;;;;;;;;;;4875705;28;86245;-86
2021/01/03 12:05:05;;;;;;;32.90;15.10;;;4.50;89.40;;;;;;4885446;28;86695;-84
2021/01/03 12:07:31;;;;;;;29.25;15.05;;;4.50;88.80;;;;;;4877537;28;86473;-86
2021/01/03 12:09:57;;;;;;;29.13;14.65;;;4.40;88.60;;;;;;4873867;29;86851;-86
2021/01/03 12:12:23;;;;;;;31.98;15.40;;;;;;;;;;4874776;28;86143;-84
2021/01/03 12:14:49;;;;;;;29.48;14.00;;;4.40;88.50;;;;;;4869376;28;87899;-87
2021/01/03 12:17:17;;;;;;;28.58;14.00;;;4.60;88.50;;;;;;4876295;28;87043;-81
2021/01/03 12:19:44;;;;;;;33.35;14.70;;;4.50;88.70;;;;;;4871612;28;87806;-86
2021/01/03 12:22:10;;;;;;;32.38;14.73;;;4.50;89.20;;;;;;4861428;29;86376;-88
2021/01/03 12:24:36;;;;;;;30.80;15.40;;;4.50;89.30;;;;;;4872682;29;86712;-88
2021/01/03 12:27:09;;;;;;;29.63;14.25;;;4.50;88.10;;;;;;4873998;29;88253;-88
2021/01/03 12:29:35;;;;;;;31.13;14.35;;;4.50;88.70;;;;;;4879889;28;86629;-88
2021/01/03 12:32:06;;;;;;;30.33;15.10;;;4.50;87.90;;;;;;4892808;28;86551;-86
2021/01/03 12:34:32;;;;;;;26.58;14.13;;;4.40;88.50;;;;;;4874770;28;87952;-87
2021/01/03 12:37:17;;;;;;;31.10;13.70;;;4.60;88.80;;;;;;4873508;29;87217;-89
2021/01/03 12:39:43;;;;;;;33.50;15.75;;;4.50;89.00;;;;;;4855881;29;87044;-89
2021/01/03 12:42:12;;;;;;;34.67;14.77;;;4.50;89.50;;;;;;4884561;28;86668;-85
2021/01/03 12:44:38;;;;;;;31.38;15.40;;;4.50;89.10;;;;;;4872869;28;87834;-87
2021/01/03 12:47:04;;;;;;;30.80;15.23;;;;;;;;;;4871698;29;87927;-88
2021/01/03 12:49:30;;;;;;;28.40;14.00;;;;;;;;;;4868456;28;86703;-87
2021/01/03 12:51:57;;;;;;;28.60;14.63;;;4.60;87.80;;;;;;4867056;29;87152;-88
2021/01/03 12:54:23;;;;;;;29.58;14.43;;;;;;;;;;4871790;28;87610;-87
2021/01/03 12:56:49;;;;;;;30.40;14.73;;;;;;;;;;4869681;29;86671;-88
2021/01/03 12:59:15;;;;;;;28.13;14.98;;;5.60;87.70;;;;;;4865420;29;86842;-87
2021/01/03 13:01:43;;;;;;;26.92;13.70;;;4.90;88.10;;;;;;4870368;29;86111;-88
2021/01/03 13:04:13;;;;;;;25.02;12.57;;;4.90;86.40;;;;;;4867985;29;87220;-89
2021/01/03 13:06:41;;;;;;;30.08;13.60;;;4.90;87.20;;;;;;4859008;28;86776;-86
2021/01/03 13:09:15;;;;;;;26.25;13.45;;;5.20;85.90;;;;;;4857103;28;87726;-87
2021/01/03 13:11:41;;;;;;;27.73;14.80;;;;;;;;;;4871735;29;86713;-84
2021/01/03 13:14:10;;;;;;;27.42;13.48;;;5.20;85.70;;;;;;4881467;28;90523;-81
2021/01/03 13:16:36;;;;;;;26.85;13.90;;;5.20;85.40;;;;;;4882221;28;87070;-81
2021/01/03 13:19:03;;;;;;;26.92;12.93;;;5.20;84.40;;;;;;4869312;28;87421;-84
2021/01/03 13:21:28;;;;;;;24.33;11.70;;;5.20;84.20;;;;;;4869912;28;86345;-84
2021/01/03 13:23:54;;;;;;;21.90;11.23;;;5.30;83.70;;;;;;4878543;28;87002;-82
2021/01/03 13:26:20;;;;;;;25.38;13.70;;;;;;;;;;4872354;28;87447;-83
2021/01/03 13:28:47;;;;;;;24.48;12.60;;;5.30;83.70;;;;;;4878038;28;86787;-82
2021/01/03 13:31:25;;;;;;;26.50;12.13;;;5.30;83.10;;;;;;4855268;29;88265;-84
2021/01/03 13:33:51;;;;;;;26.75;12.93;;;5.30;82.60;;;;;;4871341;28;89364;-84
2021/01/03 13:36:18;;;;;;;26.10;12.15;;;5.40;82.50;;;;;;4872982;29;87384;-85
2021/01/03 13:38:46;;;;;;;21.38;12.25;;;5.40;82.00;;;;;;4885242;28;86860;-84
2021/01/03 13:41:13;;;;;;;22.75;12.20;;;5.40;81.80;;;;;;4876782;28;87097;-85
2021/01/03 13:43:39;;;;;;;22.55;11.48;;;5.40;81.90;;;;;;4870478;28;87035;-84
2021/01/03 13:46:05;;;;;;;26.17;13.40;;;5.40;80.90;;;;;;4872410;29;86838;-84
2021/01/03 13:48:31;;;;;;;25.30;12.55;;;5.60;81.20;;;;;;4873123;28;86945;-84
2021/01/03 13:50:57;;;;;;;26.67;12.52;;;5.60;81.40;;;;;;4878977;28;86053;-85
2021/01/03 13:53:23;;;;;;;26.25;13.70;;;5.60;81.00;;;;;;4879086;28;87219;-84
2021/01/03 13:55:49;;;;;;;21.48;12.23;;;5.50;80.20;;;;;;4874361;28;88859;-85
2021/01/03 13:58:16;;;;;;;24.98;12.32;;;;;;;;;;4874972;29;87829;-85
2021/01/03 14:00:41;;;;;;;21.92;11.50;;;5.50;80.20;;;;;;4874011;28;87050;-86
2021/01/03 14:03:07;;;;;;;24.20;11.50;;;5.50;80.70;;;;;;4872697;28;88299;-86
2021/01/03 14:05:41;;;;;;;27.58;12.77;;;5.50;81.10;;;;;;4875068;28;86969;-84
2021/01/03 14:08:08;;;;;;;23.65;12.52;;;5.40;81.20;;;;;;4878460;28;87170;-85
2021/01/03 14:10:34;;;;;;;20.05;11.57;;;5.40;81.70;;;;;;4877269;28;86937;-83
2021/01/03 14:13:00;;;;;;;24.90;12.48;;;5.40;81.20;;;;;;4878491;28;87732;-85
2021/01/03 14:15:26;;;;;;;24.48;12.02;;;5.40;81.70;;;;;;4867340;28;86143;-84
2021/01/03 14:17:52;;;;;;;23.80;11.82;;;5.50;82.20;;;;;;4863090;28;86603;-84
2021/01/03 14:20:21;;;;;;;25.40;11.80;;;5.50;82.10;;;;;;4869150;28;86829;-86
2021/01/03 14:22:48;;;;;;;22.95;11.55;;;5.50;80.20;;;;;;4873508;28;89984;-86
2021/01/03 14:25:23;;;;;;;22.20;12.00;;;5.40;79.50;;;;;;4852427;28;88437;-87
2021/01/03 14:27:49;;;;;;;24.00;10.77;;;5.40;80.40;;;;;;4872232;28;86692;-87
2021/01/03 14:30:22;;;;;;;24.20;12.30;;;5.30;80.10;;;;;;4872714;28;88390;-86
2021/01/03 14:32:59;;;;;;;25.98;11.57;;;5.30;80.70;;;;;;4873024;29;88327;-87
2021/01/03 14:35:27;;;;;;;26.55;11.98;;;5.30;81.00;;;;;;4872668;28;89415;-86
2021/01/03 14:38:00;;;;;;;21.05;11.55;;;5.10;81.00;;;;;;4873394;29;87000;-88
2021/01/03 14:40:30;;;;;;;25.13;12.05;;;5.10;81.00;;;;;;4873171;29;86109;-87
2021/01/03 14:43:07;;;;;;;24.80;12.35;;;5.00;81.20;;;;;;4874144;29;88588;-87
2021/01/03 14:45:42;;;;;;;26.52;12.93;;;4.80;81.20;;;;;;4873499;28;86821;-87
2021/01/03 14:48:13;;;;;;;29.67;13.70;;;5.00;81.20;;;;;;4872804;29;87936;-84
2021/01/03 14:50:51;;;;;;;25.23;13.40;;;4.90;81.70;;;;;;4872603;28;86897;-85
2021/01/03 14:53:22;;;;;;;25.90;12.57;;;4.80;82.20;;;;;;4881194;28;88753;-85
2021/01/03 14:56:06;;;;;;;27.92;12.20;;;4.70;82.00;;;;;;4872277;29;86892;-83
2021/01/03 14:58:41;;;;;;;29.10;13.52;;;4.60;82.40;;;;;;4876809;28;86698;-86
2021/01/03 15:01:10;;;;;;;28.30;12.73;;;4.70;83.30;;;;;;4868596;28;86952;-83
2021/01/03 15:03:38;;;;;;;27.40;12.52;;;4.60;83.60;;;;;;4854242;29;87776;-85
2021/01/03 15:06:28;;;;;;;30.60;13.93;;;4.60;83.80;;;;;;4839487;29;88539;-86
2021/01/03 15:08:54;;;;;;;29.35;13.85;;;4.60;83.60;;;;;;4854642;29;86651;-83
2021/01/03 15:11:19;;;;;;;27.35;13.40;;;4.60;83.70;;;;;;4853040;29;87259;-82
2021/01/03 15:13:45;;;;;;;28.05;14.27;;;4.50;83.70;;;;;;4852691;29;87895;-83
2021/01/03 15:16:26;;;;;;;27.98;13.32;;;4.60;84.20;;;;;;4836905;29;91063;-84
2021/01/03 15:19:05;;;;;;;27.92;13.77;;;4.50;84.40;;;;;;4853985;29;86987;-85
2021/01/03 15:21:34;;;;;;;32.05;13.50;;;4.50;84.00;;;;;;4854333;29;86756;-85
2021/01/03 15:24:02;;;;;;;35.95;16.42;;;4.40;83.70;;;;;;4851848;29;87112;-83
2021/01/03 15:26:35;;;;;;;36.65;16.45;;;4.50;84.20;;;;;;4853829;29;87028;-84
2021/01/03 15:29:13;;;;;;;33.38;16.25;;;4.40;84.40;;;;;;4853026;29;86644;-84
2021/01/03 15:31:43;;;;;;;32.90;16.83;;;4.40;84.40;;;;;;4853194;29;86101;-85
2021/01/03 15:34:41;;;;;;;30.60;15.63;;;4.50;84.80;;;;;;4842134;29;90132;-85
2021/01/03 15:37:41;;;;;;;31.42;14.43;;;4.50;84.60;;;;;;4850370;29;86645;-84
2021/01/03 15:40:37;;;;;;;30.00;12.98;;;4.30;84.90;;;;;;4846566;29;87694;-81
2021/01/03 15:43:42;;;;;;;29.10;13.95;;;4.30;84.60;;;;;;4847248;29;87179;-83
2021/01/03 15:46:25;;;;;;;25.27;12.52;;;4.40;84.60;;;;;;4849884;29;87364;-82
2021/01/03 15:48:55;;;;;;;30.60;12.93;;;4.40;85.00;;;;;;4851775;29;86913;-84
2021/01/03 15:51:22;;;;;;;27.20;13.38;;;4.30;84.90;;;;;;4851493;29;87081;-85
2021/01/03 15:53:51;;;;;;;28.95;13.38;;;4.20;85.00;;;;;;4851090;29;87192;-83
2021/01/03 15:56:22;;;;;;;28.30;13.52;;;4.30;85.10;;;;;;4848405;29;86948;-83
2021/01/03 15:58:49;;;;;;;27.77;12.35;;;4.30;85.40;;;;;;4852409;29;88628;-83
2021/01/03 16:01:15;;;;;;;25.50;13.32;;;4.20;85.20;;;;;;4857227;28;86499;-84
2021/01/03 16:03:40;;;;;;;26.85;11.85;;;4.30;85.00;;;;;;4868945;28;86816;-82
2021/01/03 16:06:07;;;;;;;28.10;12.57;;;4.20;85.50;;;;;;4878718;28;88295;-84
2021/01/03 16:08:33;;;;;;;28.95;12.90;;;4.20;85.90;;;;;;4879604;28;90111;-85
2021/01/03 16:10:59;;;;;;;30.55;13.55;;;4.10;85.50;;;;;;4870240;28;87053;-83
2021/01/03 16:13:24;;;;;;;27.77;13.05;;;4.10;85.70;;;;;;4872052;28;87178;-85
2021/01/03 16:15:51;;;;;;;27.58;13.75;;;4.00;85.80;;;;;;4872107;28;88175;-84
2021/01/03 16:18:19;;;;;;;27.63;13.48;;;4.10;86.20;;;;;;4870424;28;87010;-84
2021/01/03 16:20:45;;;;;;;27.40;13.13;;;4.10;86.10;;;;;;4873248;28;86869;-85
2021/01/03 16:23:27;;;;;;;28.45;13.45;;;4.10;86.30;;;;;;4887934;28;86358;-83
2021/01/03 16:26:23;;;;;;;31.42;13.73;;;4.20;86.40;;;;;;4874370;28;87104;-83
2021/01/03 16:29:18;;;;;;;29.95;14.75;;;4.10;86.70;;;;;;4873611;28;87248;-83
2021/01/03 16:32:00;;;;;;;30.23;14.38;;;4.10;86.70;;;;;;4870812;28;87825;-85
2021/01/03 16:34:35;;;;;;;31.42;15.10;;;4.10;86.70;;;;;;4871214;28;86266;-82
2021/01/03 16:37:04;;;;;;;33.95;15.75;;;4.10;86.80;;;;;;4871271;28;87283;-82
2021/01/03 16:39:39;;;;;;;32.60;16.08;;;4.20;86.80;;;;;;4862535;28;88606;-84
2021/01/03 16:42:36;;;;;;;34.72;15.43;;;4.20;86.80;;;;;;4865195;28;87083;-85
2021/01/03 16:45:28;;;;;;;28.80;15.18;;;4.00;86.60;;;;;;4867829;28;87008;-84
2021/01/03 16:48:25;;;;;;;27.40;12.80;;;4.20;86.50;;;;;;4872615;29;86899;-86
2021/01/03 16:51:10;;;;;;;30.05;14.30;;;4.20;86.40;;;;;;4874866;28;86990;-86
2021/01/03 16:53:40;;;;;;;31.80;14.45;;;4.20;86.60;;;;;;4870226;28;86868;-87
2021/01/03 16:56:11;;;;;;;27.40;14.25;;;4.20;86.50;;;;;;4866445;28;86548;-83
2021/01/03 16:58:53;;;;;;;;;;;4.10;86.90;;;;;;4876749;28;88245;-83
2021/01/03 17:01:25;;;;;;;29.88;14.32;;;4.10;86.20;;;;;;4887251;28;86846;-83
2021/01/03 17:03:55;;;;;;;31.83;15.93;;;4.20;86.50;;;;;;4892927;28;86248;-83
2021/01/03 17:06:49;;;;;;;32.80;15.43;;;4.10;86.80;;;;;;4882293;28;86871;-87
2021/01/03 17:09:49;;;;;;;31.88;14.35;;;3.90;86.40;;;;;;4858491;28;87713;-83
2021/01/03 17:12:45;;;;;;;31.73;15.45;;;4.20;87.00;;;;;;4885268;28;87598;-83
2021/01/03 17:15:36;;;;;;;37.47;16.40;;;4.00;87.00;;;;;;4888543;28;86553;-83
2021/01/03 17:18:02;;;;;;;34.28;14.90;;;;;;;;;;4878858;28;86078;-81
2021/01/03 17:21:13;;;;;;;36.60;15.60;;;4.20;87.30;;;;;;4875745;28;88193;-86
2021/01/03 17:23:58;;;;;;;35.85;16.45;;;4.10;87.70;;;;;;4824870;29;87171;-85
2021/01/03 17:26:36;;;;;;;33.45;15.15;;;4.00;87.30;;;;;;4877171;28;87668;-88
2021/01/03 17:29:22;;;;;;;31.98;15.00;;;4.10;87.80;;;;;;4874758;28;86851;-86
2021/01/03 17:32:25;;;;;;;34.22;15.85;;;4.00;88.20;;;;;;4871643;28;88322;-83
2021/01/03 17:34:51;;;;;;;32.42;15.82;;;4.10;87.70;;;;;;4867258;28;87149;-82
2021/01/03 17:37:38;;;;;;;34.25;16.52;;;3.90;87.40;;;;;;4871377;28;86906;-85
2021/01/03 17:40:17;;;;;;;33.78;16.67;;;3.80;87.60;;;;;;4875007;28;86582;-86
2021/01/03 17:42:46;;;;;;;33.60;16.08;;;3.80;88.00;;;;;;4856456;29;87968;-85
2021/01/03 17:45:25;;;;;;;29.70;14.13;;;3.80;88.00;;;;;;4866171;28;90028;-84
2021/01/03 17:48:11;;;;;;;28.55;14.50;;;3.80;88.50;;;;;;4874167;29;86744;-86
2021/01/03 17:50:37;;;;;;;30.55;16.23;;;;;;;;;;4875539;28;86398;-85
2021/01/03 17:53:10;;;;;;;32.80;15.45;;;3.80;88.70;;;;;;4855396;28;89064;-85
2021/01/03 17:55:38;;;;;;;33.60;15.98;;;;;;;;;;4875308;28;88948;-86
2021/01/03 17:58:04;;;;;;;34.92;16.40;;;;;;;;;;4873755;29;86101;-84
2021/01/03 18:00:30;;;;;;;36.00;17.02;;;;;;;;;;4877323;28;86886;-84
2021/01/03 18:03:16;;;;;;;31.63;14.90;;;3.80;89.20;;;;;;4872745;28;87836;-85
2021/01/03 18:05:42;;;;;;;35.17;16.13;;;;;;;;;;4874050;29;88528;-89
2021/01/03 18:08:08;;;;;;;34.08;16.65;;;3.90;89.60;;;;;;4874212;28;86936;-84
2021/01/03 18:10:34;;;;;;;34.50;17.55;;;3.90;89.60;;;;;;4855934;29;86336;-86
2021/01/03 18:13:00;;;;;;;32.78;15.82;;;;;;;;;;4872742;28;87491;-85
2021/01/03 18:15:26;;;;;;;33.00;16.20;;;;;;;;;;4873754;29;88129;-84
2021/01/03 18:17:53;;;;;;;35.78;17.33;;;;;;;;;;4874350;28;88095;-85